createdAt,value
2022-11-22T00:00:27.801Z,97004.69
2022-11-22T00:02:54.722Z,97005.50
2022-11-22T00:05:21.576Z,97000.66
2022-11-22T00:07:48.551Z,96996.56
2022-11-22T00:10:15.797Z,96997.16
2022-11-22T00:12:43.255Z,96990.16
2022-11-22T00:15:11.081Z,96997.56
2022-11-22T00:17:38.438Z,96986.31
2022-11-22T00:20:08.208Z,96986.31
2022-11-22T00:22:39.725Z,96988.69
2022-11-22T00:25:10.430Z,96987.03
2022-11-22T00:27:37.319Z,96976.72
2022-11-22T00:30:05.558Z,96971.06
2022-11-22T00:32:32.434Z,96987.41
2022-11-22T00:34:59.203Z,96981.44
2022-11-22T00:37:26.073Z,96959.31
2022-11-22T00:39:53.001Z,96983.72
2022-11-22T00:42:19.851Z,96977.66
2022-11-22T00:44:46.761Z,96977.16
2022-11-22T00:47:13.556Z,96981.69
2022-11-22T00:49:40.444Z,96987.63
2022-11-22T00:52:07.397Z,96966.22
2022-11-22T00:54:34.199Z,96988.59
2022-11-22T00:57:00.985Z,96987.84
2022-11-22T00:59:27.911Z,96975.00
2022-11-22T01:01:54.883Z,96997.72
2022-11-22T01:04:21.733Z,97010.72
2022-11-22T01:06:49.266Z,97004.97
2022-11-22T01:09:22.811Z,97012.41
2022-11-22T01:11:50.261Z,97028.59
2022-11-22T01:14:18.793Z,96994.88
2022-11-22T01:16:46.746Z,97033.03
2022-11-22T01:19:13.592Z,97027.88
2022-11-22T01:21:40.523Z,97031.47
2022-11-22T01:24:07.749Z,97036.53
2022-11-22T01:26:35.317Z,97042.19
2022-11-22T01:29:02.123Z,97034.66
2022-11-22T01:31:29.948Z,97041.28
2022-11-22T01:33:57.908Z,97029.22
2022-11-22T01:36:25.174Z,97039.19
2022-11-22T01:38:52.413Z,97046.22
2022-11-22T01:41:19.300Z,97045.25
2022-11-22T01:43:46.088Z,97039.41
2022-11-22T01:46:33.326Z,97037.53
2022-11-22T01:49:32.400Z,97030.50
2022-11-22T01:52:07.900Z,97039.91
2022-11-22T01:54:38.731Z,97039.19
2022-11-22T01:57:11.590Z,97030.31
2022-11-22T01:59:44.988Z,97039.97
2022-11-22T02:02:13.070Z,97036.97
2022-11-22T02:04:41.653Z,97031.50
2022-11-22T02:07:24.343Z,97042.06
2022-11-22T02:09:53.213Z,97048.06
2022-11-22T02:12:26.667Z,97053.97
2022-11-22T02:14:54.947Z,97055.91
2022-11-22T02:17:22.088Z,97057.59
2022-11-22T02:19:49.951Z,97059.22
2022-11-22T02:22:45.678Z,97045.19
2022-11-22T02:25:41.251Z,97058.81
2022-11-22T02:28:11.950Z,97069.84
2022-11-22T02:30:40.588Z,97069.94
2022-11-22T02:33:08.378Z,97074.19
2022-11-22T02:35:35.401Z,97058.09
2022-11-22T02:38:04.478Z,97073.84
2022-11-22T02:40:42.885Z,97076.22
2022-11-22T02:43:15.830Z,97084.91
2022-11-22T02:45:42.672Z,97076.31
2022-11-22T02:48:15.900Z,97072.72
2022-11-22T02:50:42.893Z,97071.78
2022-11-22T02:53:11.887Z,97071.59
2022-11-22T02:55:39.172Z,97076.03
2022-11-22T02:58:06.455Z,97071.78
2022-11-22T03:00:36.301Z,97076.75
2022-11-22T03:03:03.273Z,97076.75
2022-11-22T03:05:30.051Z,97075.91
2022-11-22T03:07:56.844Z,97080.13
2022-11-22T03:10:23.728Z,97077.25
2022-11-22T03:12:50.951Z,97077.25
2022-11-22T03:15:17.875Z,97076.03
2022-11-22T03:17:44.757Z,97092.72
2022-11-22T03:20:11.854Z,97093.53
2022-11-22T03:22:38.719Z,97084.06
2022-11-22T03:25:06.057Z,97095.50
2022-11-22T03:27:32.970Z,97090.34
2022-11-22T03:29:59.739Z,97089.72
2022-11-22T03:32:26.568Z,97101.28
2022-11-22T03:34:53.339Z,97106.66
2022-11-22T03:37:20.223Z,97102.53
2022-11-22T03:39:46.982Z,97107.78
2022-11-22T03:42:19.781Z,97101.00
2022-11-22T03:44:48.222Z,97095.94
2022-11-22T03:47:14.979Z,97094.09
2022-11-22T03:49:42.272Z,97091.41
2022-11-22T03:52:09.362Z,97088.19
2022-11-22T03:54:36.195Z,97090.78
2022-11-22T03:57:03.001Z,97093.38
2022-11-22T03:59:30.160Z,97098.41
2022-11-22T04:01:57.213Z,97101.22
2022-11-22T04:04:24.125Z,97096.84
2022-11-22T04:06:51.211Z,97091.81
2022-11-22T04:09:18.008Z,97058.94
2022-11-22T04:11:44.836Z,97100.25
2022-11-22T04:14:30.952Z,97065.94
2022-11-22T04:16:57.781Z,97095.09
2022-11-22T04:19:24.565Z,97088.72
2022-11-22T04:21:51.313Z,97094.88
2022-11-22T04:24:36.718Z,97105.53
2022-11-22T04:27:03.591Z,97092.13
2022-11-22T04:29:30.520Z,97103.38
2022-11-22T04:32:15.802Z,97103.28
2022-11-22T04:34:42.613Z,97107.59
2022-11-22T04:37:09.407Z,97108.31
2022-11-22T04:39:36.201Z,97099.88
2022-11-22T04:42:26.067Z,97112.03
2022-11-22T04:44:52.873Z,97107.09
2022-11-22T04:47:38.433Z,97112.47
2022-11-22T04:50:28.379Z,97107.09
2022-11-22T04:52:57.312Z,97100.38
2022-11-22T04:55:24.201Z,97103.78
2022-11-22T04:57:55.959Z,97107.31
2022-11-22T05:00:27.421Z,97109.78
2022-11-22T05:02:54.510Z,97109.88
2022-11-22T05:05:21.281Z,97110.06
2022-11-22T05:07:48.106Z,97112.13
2022-11-22T05:10:15.291Z,97114.94
2022-11-22T05:12:42.545Z,97116.78
2022-11-22T05:15:11.294Z,97125.69
2022-11-22T05:17:39.163Z,97129.69
2022-11-22T05:20:08.167Z,97132.56
2022-11-22T05:22:53.869Z,97134.75
2022-11-22T05:25:25.318Z,97131.94
2022-11-22T05:27:54.400Z,97132.06
2022-11-22T05:30:21.187Z,97140.69
2022-11-22T05:32:47.975Z,97146.91
2022-11-22T05:35:14.845Z,97147.28
2022-11-22T05:37:41.629Z,97146.28
2022-11-22T05:40:09.538Z,97156.78
2022-11-22T05:42:36.297Z,97141.06
2022-11-22T05:45:03.325Z,97144.00
2022-11-22T05:47:35.508Z,97153.59
2022-11-22T05:50:03.458Z,97147.59
2022-11-22T05:52:30.820Z,97152.84
2022-11-22T05:54:57.682Z,97149.72
2022-11-22T05:57:24.454Z,97150.34
2022-11-22T05:59:51.335Z,97152.31
2022-11-22T06:02:18.499Z,97163.56
2022-11-22T06:04:45.402Z,97162.06
2022-11-22T06:07:12.335Z,97156.41
2022-11-22T06:09:39.147Z,97155.09
2022-11-22T06:12:06.422Z,97163.72
2022-11-22T06:14:34.078Z,97162.09
2022-11-22T06:17:03.389Z,97175.28
2022-11-22T06:19:30.438Z,97177.94
2022-11-22T06:21:57.336Z,97168.78
2022-11-22T06:24:24.162Z,97189.72
2022-11-22T06:26:50.911Z,97190.34
2022-11-22T06:29:17.704Z,97191.97
2022-11-22T06:31:44.477Z,97194.75
2022-11-22T06:34:14.418Z,97200.84
2022-11-22T06:36:41.255Z,97199.00
2022-11-22T06:39:08.132Z,97201.59
2022-11-22T06:41:37.238Z,97205.06
2022-11-22T06:44:09.482Z,97219.69
2022-11-22T06:46:37.055Z,97221.38
2022-11-22T06:49:04.142Z,97214.84
2022-11-22T06:51:32.199Z,97225.16
2022-11-22T06:53:59.250Z,97237.13
2022-11-22T06:56:38.421Z,97248.97
2022-11-22T06:59:07.300Z,97263.50
2022-11-22T07:01:35.890Z,97270.53
2022-11-22T07:04:04.635Z,97271.31
2022-11-22T07:06:35.845Z,97269.47
2022-11-22T07:09:05.980Z,97279.91
2022-11-22T07:11:33.597Z,97276.38
2022-11-22T07:14:07.726Z,97280.63
2022-11-22T07:16:37.202Z,97281.53
2022-11-22T07:19:04.516Z,97280.53
2022-11-22T07:21:32.279Z,97270.31
2022-11-22T07:23:59.144Z,97288.50
2022-11-22T07:26:27.168Z,97295.78
2022-11-22T07:28:54.105Z,97285.63
2022-11-22T07:31:21.423Z,97304.03
2022-11-22T07:33:48.442Z,97311.75
2022-11-22T07:36:21.610Z,97316.91
2022-11-22T07:38:49.342Z,97317.72
2022-11-22T07:41:18.493Z,97314.22
2022-11-22T07:43:46.768Z,97275.94
2022-11-22T07:46:29.793Z,97307.91
2022-11-22T07:48:57.966Z,97316.25
2022-11-22T07:51:25.168Z,97310.06
2022-11-22T07:53:52.495Z,97313.59
2022-11-22T07:56:19.552Z,97323.50
2022-11-22T07:58:46.602Z,97327.66
2022-11-22T08:01:19.111Z,97322.94
2022-11-22T08:03:46.606Z,97321.47
2022-11-22T08:06:14.455Z,97327.34
2022-11-22T08:08:41.707Z,97316.19
2022-11-22T08:11:08.802Z,97309.72
2022-11-22T08:13:36.398Z,97320.28
2022-11-22T08:16:09.078Z,97322.75
2022-11-22T08:18:38.097Z,97288.81
2022-11-22T08:21:13.040Z,97330.28
2022-11-22T08:23:41.818Z,97325.97
2022-11-22T08:26:12.623Z,97315.97
2022-11-22T08:28:41.115Z,97327.34
2022-11-22T08:31:14.853Z,97328.06
2022-11-22T08:33:41.841Z,97308.56
2022-11-22T08:36:08.808Z,97313.41
2022-11-22T08:38:36.128Z,97316.19
2022-11-22T08:41:04.066Z,97315.91
2022-11-22T08:43:31.770Z,97311.28
2022-11-22T08:45:59.914Z,97301.69
2022-11-22T08:48:28.321Z,97302.25
2022-11-22T08:50:58.251Z,97301.19
2022-11-22T08:53:26.039Z,97294.50
2022-11-22T08:55:54.540Z,97301.81
2022-11-22T08:58:22.464Z,97291.09
2022-11-22T09:00:49.356Z,97299.97
2022-11-22T09:03:16.217Z,97294.63
2022-11-22T09:08:32.797Z,97291.72
2022-11-22T09:11:06.273Z,97292.88
2022-11-22T09:13:33.514Z,97293.09
2022-11-22T09:16:10.097Z,97301.66
2022-11-22T09:18:37.334Z,97300.63
2022-11-22T09:21:07.935Z,97312.41
2022-11-22T09:23:35.934Z,97303.81
2022-11-22T09:26:09.059Z,97305.41
2022-11-22T09:28:36.568Z,97295.47
2022-11-22T09:31:09.613Z,97323.97
2022-11-22T09:33:39.449Z,97327.06
2022-11-22T09:36:15.188Z,97324.19
2022-11-22T09:38:42.313Z,97338.66
2022-11-22T09:41:54.349Z,97345.56
2022-11-22T09:44:42.971Z,97341.34
2022-11-22T09:47:41.563Z,97351.06
2022-11-22T09:50:39.942Z,97350.00
2022-11-22T09:53:40.698Z,97356.63
2022-11-22T09:56:16.995Z,97351.25
2022-11-22T09:58:51.461Z,97355.38
2022-11-22T10:01:40.929Z,97364.69
2022-11-22T10:04:41.140Z,97369.63
2022-11-22T10:07:22.818Z,97369.44
2022-11-22T10:10:14.932Z,97364.72
2022-11-22T10:13:07.568Z,97376.06
2022-11-22T10:15:51.389Z,97375.44
2022-11-22T10:18:48.928Z,97368.22
2022-11-22T10:21:15.859Z,97378.03
2022-11-22T10:23:44.018Z,97371.94
2022-11-22T10:26:33.814Z,97378.56
2022-11-22T10:29:03.329Z,97386.19
2022-11-22T10:31:59.710Z,97388.66
2022-11-22T10:34:59.121Z,97383.69
2022-11-22T10:38:07.585Z,97387.94
2022-11-22T10:40:45.544Z,97373.38
2022-11-22T10:43:34.004Z,97396.50
2022-11-22T10:46:00.720Z,97384.31
2022-11-22T10:48:48.148Z,97389.91
2022-11-22T10:51:22.629Z,97388.78
2022-11-22T10:54:26.430Z,97383.50
2022-11-22T10:57:23.445Z,97382.47
2022-11-22T11:00:24.694Z,97381.13
2022-11-22T11:03:30.302Z,97381.72
2022-11-22T11:06:43.688Z,97385.38
2022-11-22T11:12:44.004Z,97394.03
2022-11-22T11:15:27.497Z,97389.69
2022-11-22T11:18:01.081Z,97376.28
2022-11-22T11:20:34.562Z,97365.44
2022-11-22T11:23:17.068Z,97340.75
2022-11-22T11:25:47.014Z,97368.63
2022-11-22T11:28:20.890Z,97363.88
2022-11-22T11:31:11.267Z,97365.84
2022-11-22T11:33:41.195Z,97358.31
2022-11-22T11:36:13.469Z,97352.41
2022-11-22T11:38:43.324Z,97353.13
2022-11-22T11:41:23.977Z,97360.38
2022-11-22T11:43:57.111Z,97355.00
2022-11-22T11:46:27.458Z,97353.53
2022-11-22T11:49:21.303Z,97355.00
2022-11-22T11:51:55.304Z,97349.22
2022-11-22T11:54:29.724Z,97340.94
2022-11-22T11:56:58.115Z,97335.56
2022-11-22T11:59:40.019Z,97337.94
2022-11-22T12:02:40.343Z,97325.41
2022-11-22T12:05:13.368Z,97326.75
2022-11-22T12:07:47.940Z,97319.00
2022-11-22T12:10:31.633Z,97308.66
2022-11-22T12:13:20.264Z,97311.66
2022-11-22T12:16:25.013Z,97311.03
2022-11-22T12:19:24.956Z,97305.94
2022-11-22T12:22:13.836Z,97305.50
2022-11-22T12:25:30.473Z,97298.81
2022-11-22T12:27:47.822Z,97294.16
2022-11-22T12:30:15.163Z,97280.72
2022-11-22T12:32:52.294Z,97286.41
2022-11-22T12:35:21.423Z,97297.25
2022-11-22T12:38:06.305Z,97292.28
2022-11-22T12:40:46.529Z,97290.09
2022-11-22T12:43:50.820Z,97293.63
2022-11-22T12:46:26.438Z,97298.47
2022-11-22T12:49:16.963Z,97286.38
2022-11-22T12:51:47.453Z,97287.94
2022-11-22T12:55:08.362Z,97287.78
2022-11-22T12:57:45.854Z,97278.38
2022-11-22T13:00:36.167Z,97281.50
2022-11-22T13:03:14.010Z,97280.25
2022-11-22T13:05:47.432Z,97256.13
2022-11-22T13:08:18.786Z,97273.03
2022-11-22T13:11:14.163Z,97279.19
2022-11-22T13:13:52.313Z,97275.22
2022-11-22T13:16:19.167Z,97273.22
2022-11-22T13:18:59.336Z,97266.06
2022-11-22T13:22:09.651Z,97259.22
2022-11-22T13:24:44.554Z,97274.84
2022-11-22T13:27:44.288Z,97272.16
2022-11-22T13:30:21.379Z,97273.38
2022-11-22T13:32:52.791Z,97267.34
2022-11-22T13:35:32.418Z,97265.72
2022-11-22T13:38:17.270Z,97273.47
2022-11-22T13:40:53.771Z,97281.22
2022-11-22T13:43:22.555Z,97289.94
2022-11-22T13:46:04.897Z,97291.34
2022-11-22T13:48:40.780Z,97288.03
2022-11-22T13:51:13.501Z,97270.41
2022-11-22T13:53:43.133Z,97290.63
2022-11-22T13:56:15.984Z,97293.22
2022-11-22T13:58:51.228Z,97285.75
2022-11-22T14:01:36.878Z,97301.88
2022-11-22T14:04:15.908Z,97307.34
2022-11-22T14:06:54.182Z,97309.94
2022-11-22T14:09:45.587Z,97299.28
2022-11-22T14:13:00.085Z,97300.81
2022-11-22T14:16:02.891Z,97295.13
2022-11-22T14:18:47.609Z,97295.59
2022-11-22T14:21:41.049Z,97293.03
2022-11-22T14:24:37.002Z,97293.03
2022-11-22T14:27:54.285Z,97287.50
2022-11-22T14:30:23.588Z,97287.00
2022-11-22T14:32:52.799Z,97287.94
2022-11-22T14:35:29.771Z,97294.78
2022-11-22T14:38:07.572Z,97296.09
2022-11-22T14:40:41.742Z,97291.97
2022-11-22T14:43:11.511Z,97296.09
2022-11-22T14:46:04.249Z,97299.50
2022-11-22T14:48:37.524Z,97299.59
2022-11-22T14:51:04.156Z,97306.34
2022-11-22T14:53:36.289Z,97307.13
2022-11-22T14:56:25.160Z,97299.00
2022-11-22T14:59:00.972Z,97316.94
2022-11-22T15:01:46.561Z,97317.28
2022-11-22T15:09:16.275Z,97324.22
2022-11-22T15:09:17.680Z,97319.88
2022-11-22T15:11:33.138Z,97316.56
2022-11-22T15:14:21.896Z,97324.22
2022-11-22T15:57:22.549Z,97364.47
2022-11-22T15:59:53.707Z,97364.25
2022-11-22T16:02:30.262Z,97361.66
2022-11-22T16:06:09.440Z,97364.25
2022-11-22T16:07:53.446Z,97373.47
2022-11-22T16:10:33.147Z,97373.06
2022-11-22T16:13:26.163Z,97379.28
2022-11-22T16:16:11.228Z,97374.81
2022-11-22T16:18:39.705Z,97374.94
2022-11-22T16:21:15.375Z,97377.41
2022-11-22T16:23:45.160Z,97380.72
2022-11-22T16:26:22.222Z,97381.75
2022-11-22T16:28:51.667Z,97383.31
2022-11-22T16:31:31.021Z,97382.59
2022-11-22T16:33:58.492Z,97376.19
2022-11-22T16:36:29.750Z,97375.97
2022-11-22T16:38:56.837Z,97380.72
2022-11-22T16:41:27.363Z,97389.41
2022-11-22T16:43:57.101Z,97391.06
2022-11-22T16:46:24.017Z,97397.25
2022-11-22T16:48:51.103Z,97398.09
2022-11-22T16:51:29.124Z,97399.75
2022-11-22T16:54:11.356Z,97401.63
2022-11-22T16:56:38.208Z,97404.91
2022-11-22T16:59:09.775Z,97405.75
2022-11-22T17:01:42.552Z,97408.13
2022-11-22T17:04:24.950Z,97406.81
2022-11-22T17:06:52.128Z,97406.81
2022-11-22T17:09:19.138Z,97401.94
2022-11-22T17:11:46.026Z,97413.34
2022-11-22T17:14:18.841Z,97393.28
2022-11-22T17:16:46.369Z,97414.47
2022-11-22T17:22:00.807Z,97416.94
2022-11-22T17:24:27.747Z,97411.16
2022-11-22T17:26:54.709Z,97421.22
2022-11-22T17:32:14.581Z,97426.47
2022-11-22T17:34:41.478Z,97424.59
2022-11-22T17:37:12.844Z,97429.78
2022-11-22T17:39:40.603Z,97430.22
2022-11-22T17:42:07.697Z,97422.56
2022-11-22T17:44:34.606Z,97437.03
2022-11-22T17:47:01.470Z,97443.88
2022-11-22T17:49:28.650Z,97450.66
2022-11-22T17:51:55.919Z,97450.66
2022-11-22T17:54:22.774Z,97442.41
2022-11-22T17:56:49.538Z,97458.03
2022-11-22T17:59:16.442Z,97461.63
2022-11-22T18:01:43.361Z,97456.56
2022-11-22T18:04:10.461Z,97450.66
2022-11-22T18:06:37.335Z,97458.44
2022-11-22T18:09:04.294Z,97468.66
2022-11-22T18:11:31.468Z,97460.63
2022-11-22T18:13:58.327Z,97469.38
2022-11-22T18:16:28.849Z,97467.81
2022-11-22T18:18:57.813Z,97473.84
2022-11-22T18:21:30.094Z,97471.13
2022-11-22T18:23:58.871Z,97477.03
2022-11-22T18:26:42.522Z,97478.09
2022-11-22T18:29:41.625Z,97483.16
2022-11-22T18:31:59.945Z,97486.66
2022-11-22T18:34:27.653Z,97494.41
2022-11-22T18:37:00.846Z,97465.75
2022-11-22T18:39:31.196Z,97495.47
2022-11-22T18:41:58.466Z,97491.03
2022-11-22T18:44:25.479Z,97501.44
2022-11-22T18:46:52.745Z,97509.13
2022-11-22T18:49:19.609Z,97494.44
2022-11-22T18:51:46.519Z,97510.97
2022-11-22T18:54:13.516Z,97508.41
2022-11-22T18:56:41.007Z,97511.78
2022-11-22T18:59:12.295Z,97505.91
2022-11-22T19:01:39.942Z,97506.94
2022-11-22T19:04:07.014Z,97507.03
2022-11-22T19:06:33.786Z,97512.00
2022-11-22T19:09:01.473Z,97501.16
2022-11-22T19:11:31.640Z,97514.06
2022-11-22T19:13:58.973Z,97519.03
2022-11-22T19:16:29.456Z,97507.44
2022-11-22T19:18:58.640Z,97504.47
2022-11-22T19:21:28.184Z,97511.50
2022-11-22T19:23:56.269Z,97511.69
2022-11-22T19:26:25.914Z,97521.50
2022-11-22T19:28:57.635Z,97514.03
2022-11-22T19:31:28.676Z,97521.50
2022-11-22T19:33:55.545Z,97517.16
2022-11-22T19:36:31.843Z,97517.25
2022-11-22T19:39:00.164Z,97512.19
2022-11-22T19:41:27.293Z,97513.97
2022-11-22T19:43:56.013Z,97508.97
2022-11-22T19:46:23.996Z,97507.22
2022-11-22T19:48:52.582Z,97515.81
2022-11-22T19:51:20.362Z,97521.78
2022-11-22T19:53:47.546Z,97526.03
2022-11-22T19:56:19.205Z,97514.03
2022-11-22T19:58:54.454Z,97532.59
2022-11-22T20:01:24.730Z,97519.53
2022-11-22T20:03:54.544Z,97542.47
2022-11-22T20:06:21.685Z,97539.06
2022-11-22T20:08:48.870Z,97540.50
2022-11-22T20:11:20.532Z,97537.22
2022-11-22T20:13:50.053Z,97536.28
2022-11-22T20:16:26.549Z,97544.03
2022-11-22T20:18:58.858Z,97546.63
2022-11-22T20:21:27.490Z,97547.63
2022-11-22T20:23:55.247Z,97550.31
2022-11-22T20:26:22.787Z,97557.97
2022-11-22T20:28:59.311Z,97556.44
2022-11-22T20:31:27.865Z,97553.63
2022-11-22T20:33:55.309Z,97546.09
2022-11-22T20:36:25.457Z,97548.91
2022-11-22T20:38:53.839Z,97547.44
2022-11-22T20:41:25.242Z,97537.69
2022-11-22T20:43:52.664Z,97557.78
2022-11-22T20:46:22.900Z,97556.13
2022-11-22T20:48:51.976Z,97569.97
2022-11-22T20:51:25.254Z,97571.53
2022-11-22T20:53:52.407Z,97570.69
2022-11-22T20:56:20.020Z,97571.91
2022-11-22T20:58:47.614Z,97574.50
2022-11-22T21:01:21.290Z,97574.09
2022-11-22T21:03:49.139Z,97573.25
2022-11-22T21:06:18.071Z,97576.56
2022-11-22T21:08:48.118Z,97576.78
2022-11-22T21:11:18.989Z,97567.88
2022-11-22T21:13:47.124Z,97572.81
2022-11-22T21:16:24.663Z,97581.53
2022-11-22T21:18:54.870Z,97575.81
2022-11-22T21:21:23.476Z,97578.50
2022-11-22T21:23:56.080Z,97583.47
2022-11-22T21:26:24.355Z,97580.03
2022-11-22T21:28:52.563Z,97587.16
2022-11-22T21:31:20.621Z,97590.59
2022-11-22T21:33:48.857Z,97595.75
2022-11-22T21:36:15.828Z,97594.28
2022-11-22T21:38:42.724Z,97599.66
2022-11-22T21:44:08.175Z,97607.50
2022-11-22T21:46:34.936Z,97604.38
2022-11-22T21:49:01.942Z,97612.44
2022-11-22T21:51:28.803Z,97605.59
2022-11-22T21:54:02.666Z,97612.81
2022-11-22T21:56:29.813Z,97602.06
2022-11-22T21:58:56.989Z,97613.91
2022-11-22T22:01:24.957Z,97608.06
2022-11-22T22:03:52.562Z,97607.78
2022-11-22T22:06:19.956Z,97607.97
2022-11-22T22:08:46.785Z,97604.88
2022-11-22T22:11:13.631Z,97612.91
2022-11-22T22:13:40.450Z,97614.84
2022-11-22T22:16:08.281Z,97613.66
2022-11-22T22:18:37.668Z,97612.19
2022-11-22T22:21:10.209Z,97615.06
2022-11-22T22:23:39.333Z,97610.91
2022-11-22T22:26:13.516Z,97623.44
2022-11-22T22:28:41.321Z,97619.09
2022-11-22T22:31:21.693Z,97618.84
2022-11-22T22:33:52.740Z,97624.53
2022-11-22T22:36:19.905Z,97618.09
2022-11-22T22:38:47.303Z,97625.03
2022-11-22T22:41:14.362Z,97631.00
2022-11-22T22:43:44.764Z,97636.72
2022-11-22T22:46:21.244Z,97632.09
2022-11-22T22:48:49.192Z,97645.44
2022-11-22T22:51:31.856Z,97644.31
2022-11-22T22:54:00.571Z,97648.81
2022-11-22T22:56:30.113Z,97651.69
2022-11-22T22:58:58.939Z,97652.81
2022-11-22T23:01:29.077Z,97656.19
2022-11-22T23:04:01.294Z,97653.81
2022-11-22T23:06:34.814Z,97657.22
2022-11-22T23:09:04.551Z,97655.69
2022-11-22T23:11:51.330Z,97655.19
2022-11-22T23:14:29.991Z,97652.78
2022-11-22T23:16:58.283Z,97651.13
2022-11-22T23:19:26.694Z,97652.97
2022-11-22T23:21:54.664Z,97652.22
2022-11-22T23:24:21.561Z,97650.91
2022-11-22T23:26:48.336Z,97661.88
2022-11-22T23:29:15.229Z,97659.38
2022-11-22T23:31:42.021Z,97661.41
2022-11-22T23:34:11.167Z,97663.13
2022-11-22T23:36:40.924Z,97644.72
2022-11-22T23:39:08.736Z,97634.25
2022-11-22T23:41:35.684Z,97658.75
2022-11-22T23:44:02.453Z,97661.78
2022-11-22T23:46:29.400Z,97663.59
2022-11-22T23:48:59.679Z,97654.53
2022-11-22T23:51:29.744Z,97660.75
2022-11-22T23:54:05.709Z,97655.63
2022-11-22T23:56:34.726Z,97663.69
2022-11-22T23:59:02.207Z,97655.72
